createdAt,value
2022-08-16T00:00:48.115Z,19.90
2022-08-16T00:03:40.799Z,19.90
2022-08-16T00:06:29.378Z,19.90
2022-08-16T00:09:17.356Z,19.90
2022-08-16T00:12:06.183Z,19.90
2022-08-16T00:14:57.124Z,19.80
2022-08-16T00:17:56.128Z,19.70
2022-08-16T00:20:48.260Z,19.70
2022-08-16T00:23:40.464Z,19.70
2022-08-16T00:26:37.607Z,19.60
2022-08-16T00:29:33.684Z,19.60
2022-08-16T00:32:25.156Z,19.50
2022-08-16T00:35:16.939Z,19.60
2022-08-16T00:38:40.110Z,19.50
2022-08-16T00:41:14.811Z,19.40
2022-08-16T00:44:10.908Z,19.40
2022-08-16T00:47:06.480Z,19.40
2022-08-16T00:49:58.415Z,19.30
2022-08-16T00:52:50.864Z,19.30
2022-08-16T00:55:47.858Z,19.30
2022-08-16T00:58:40.003Z,19.30
2022-08-16T01:01:32.683Z,19.20
2022-08-16T01:04:30.084Z,19.20
2022-08-16T01:07:20.156Z,19.20
2022-08-16T01:10:16.162Z,19.20
2022-08-16T01:13:12.443Z,19.20
2022-08-16T01:16:10.143Z,19.10
2022-08-16T01:19:04.385Z,19.10
2022-08-16T01:21:58.038Z,19.10
2022-08-16T01:25:10.862Z,19.00
2022-08-16T01:28:01.714Z,18.90
2022-08-16T01:30:53.544Z,18.90
2022-08-16T01:33:44.692Z,18.90
2022-08-16T01:36:33.948Z,18.80
2022-08-16T01:39:21.936Z,18.80
2022-08-16T01:42:13.187Z,18.80
2022-08-16T01:45:01.146Z,18.70
2022-08-16T01:47:52.772Z,18.60
2022-08-16T01:51:08.429Z,18.70
2022-08-16T01:53:55.290Z,18.70
2022-08-16T01:56:44.137Z,18.60
2022-08-16T01:59:36.450Z,18.60
2022-08-16T02:02:27.368Z,18.60
2022-08-16T02:05:16.514Z,18.50
2022-08-16T02:08:06.439Z,18.50
2022-08-16T02:10:55.761Z,18.50
2022-08-16T02:13:43.938Z,18.50
2022-08-16T02:16:33.763Z,18.40
2022-08-16T02:19:22.451Z,18.40
2022-08-16T02:22:34.753Z,18.40
2022-08-16T02:25:22.738Z,18.40
2022-08-16T02:28:11.227Z,18.30
2022-08-16T02:31:03.186Z,18.30
2022-08-16T02:33:52.386Z,18.20
2022-08-16T02:36:47.753Z,18.20
2022-08-16T02:39:39.017Z,18.20
2022-08-16T02:42:29.292Z,17.90
2022-08-16T02:45:17.574Z,18.10
2022-08-16T02:48:28.289Z,18.00
2022-08-16T02:51:15.580Z,18.00
2022-08-16T02:54:03.467Z,18.00
2022-08-16T02:56:51.280Z,17.90
2022-08-16T02:59:42.408Z,17.90
2022-08-16T03:02:31.830Z,17.80
2022-08-16T03:05:20.566Z,17.80
2022-08-16T03:08:51.125Z,17.80
2022-08-16T03:11:21.729Z,17.70
2022-08-16T03:14:11.480Z,17.70
2022-08-16T03:17:01.010Z,17.70
2022-08-16T03:19:59.686Z,17.70
2022-08-16T03:22:48.574Z,17.70
2022-08-16T03:25:44.247Z,17.60
2022-08-16T03:28:32.975Z,17.70
2022-08-16T03:31:20.811Z,17.70
2022-08-16T03:34:08.897Z,17.70
2022-08-16T03:36:56.911Z,17.70
2022-08-16T03:39:44.776Z,17.70
2022-08-16T03:42:34.104Z,17.60
2022-08-16T03:45:42.444Z,17.60
2022-08-16T03:48:37.007Z,17.60
2022-08-16T03:51:28.702Z,17.60
2022-08-16T03:54:16.568Z,17.60
2022-08-16T03:57:05.854Z,17.60
2022-08-16T04:00:00.885Z,17.60
2022-08-16T04:02:55.482Z,17.60
2022-08-16T04:05:47.247Z,17.50
2022-08-16T04:08:35.104Z,17.50
2022-08-16T04:11:27.570Z,17.50
2022-08-16T04:14:31.144Z,17.50
2022-08-16T04:17:24.293Z,17.40
2022-08-16T04:20:23.863Z,17.40
2022-08-16T04:23:19.648Z,17.40
2022-08-16T04:26:08.489Z,17.40
2022-08-16T04:29:16.266Z,17.30
2022-08-16T04:32:06.808Z,17.30
2022-08-16T04:34:56.339Z,17.30
2022-08-16T04:37:44.411Z,17.30
2022-08-16T04:40:33.011Z,17.20
2022-08-16T04:43:21.412Z,17.30
2022-08-16T04:46:32.051Z,17.20
2022-08-16T04:49:24.830Z,17.20
2022-08-16T04:52:33.382Z,17.10
2022-08-16T04:55:37.559Z,17.10
2022-08-16T04:58:44.490Z,17.20
2022-08-16T05:01:55.892Z,17.20
2022-08-16T05:04:43.807Z,17.10
2022-08-16T05:07:33.650Z,17.10
2022-08-16T05:10:22.763Z,17.20
2022-08-16T05:13:15.599Z,17.30
2022-08-16T05:16:04.098Z,17.20
2022-08-16T05:18:56.580Z,17.20
2022-08-16T05:21:44.779Z,17.30
2022-08-16T05:24:35.634Z,17.30
2022-08-16T05:27:24.989Z,17.40
2022-08-16T05:30:35.792Z,17.40
2022-08-16T05:33:23.607Z,17.40
2022-08-16T05:36:14.379Z,17.40
2022-08-16T05:39:02.770Z,17.40
2022-08-16T05:41:52.960Z,17.40
2022-08-16T05:44:40.776Z,17.50
2022-08-16T05:47:30.314Z,17.50
2022-08-16T05:50:19.324Z,17.50
2022-08-16T05:53:07.735Z,17.60
2022-08-16T05:55:57.932Z,17.60
2022-08-16T05:58:47.134Z,17.60
2022-08-16T06:01:38.170Z,17.60
2022-08-16T06:04:34.760Z,17.70
2022-08-16T06:07:26.628Z,17.70
2022-08-16T06:10:31.888Z,17.90
2022-08-16T06:13:20.361Z,17.70
2022-08-16T06:16:18.227Z,17.70
2022-08-16T06:19:06.829Z,17.70
2022-08-16T06:21:55.318Z,17.70
2022-08-16T06:24:53.344Z,17.70
2022-08-16T06:27:57.617Z,17.80
2022-08-16T06:30:46.811Z,17.80
2022-08-16T06:33:41.670Z,17.80
2022-08-16T06:36:32.275Z,17.90
2022-08-16T06:39:20.538Z,18.00
2022-08-16T06:42:08.412Z,18.10
2022-08-16T06:44:56.267Z,18.10
2022-08-16T06:47:52.947Z,18.10
2022-08-16T06:50:43.261Z,18.10
2022-08-16T06:53:36.419Z,18.20
2022-08-16T06:56:24.673Z,18.30
2022-08-16T06:59:12.615Z,18.20
2022-08-16T07:02:00.907Z,18.30
2022-08-16T07:04:49.847Z,18.40
2022-08-16T07:07:44.066Z,18.40
2022-08-16T07:10:31.914Z,18.50
2022-08-16T07:14:03.754Z,18.60
2022-08-16T07:16:32.304Z,18.70
2022-08-16T07:19:20.159Z,18.80
2022-08-16T07:22:08.456Z,18.90
2022-08-16T07:25:17.284Z,19.00
2022-08-16T07:28:06.208Z,19.10
2022-08-16T07:31:02.062Z,19.20
2022-08-16T07:33:51.972Z,19.20
2022-08-16T07:36:42.131Z,19.30
2022-08-16T07:39:34.077Z,19.40
2022-08-16T07:42:28.697Z,19.50
2022-08-16T07:45:23.164Z,19.60
2022-08-16T07:48:12.531Z,19.70
2022-08-16T07:51:02.484Z,19.80
2022-08-16T07:54:04.147Z,19.90
2022-08-16T07:56:57.603Z,19.90
2022-08-16T07:59:47.122Z,20.00
2022-08-16T08:02:35.184Z,20.10
2022-08-16T08:05:25.296Z,20.20
2022-08-16T08:08:50.452Z,20.20
2022-08-16T08:11:25.247Z,20.50
2022-08-16T08:14:29.901Z,20.60
2022-08-16T08:17:19.740Z,20.80
2022-08-16T08:20:10.620Z,20.90
2022-08-16T08:23:00.791Z,21.00
2022-08-16T08:25:53.401Z,21.10
2022-08-16T08:28:42.572Z,21.20
2022-08-16T08:31:30.633Z,21.30
2022-08-16T08:34:21.102Z,21.50
2022-08-16T08:37:10.137Z,21.60
2022-08-16T08:39:58.104Z,21.70
2022-08-16T08:42:48.074Z,21.80
2022-08-16T08:45:47.063Z,21.80
2022-08-16T08:48:37.483Z,21.90
2022-08-16T08:51:27.490Z,22.00
2022-08-16T08:54:18.830Z,22.10
2022-08-16T08:57:08.915Z,22.20
2022-08-16T08:59:56.792Z,22.40
2022-08-16T09:02:45.657Z,22.50
2022-08-16T09:05:40.257Z,22.60
2022-08-16T09:08:35.040Z,22.70
2022-08-16T09:11:23.071Z,22.90
2022-08-16T09:14:29.454Z,23.00
2022-08-16T09:17:38.146Z,23.10
2022-08-16T09:20:27.175Z,23.30
2022-08-16T09:23:15.187Z,23.40
2022-08-16T09:26:46.067Z,23.50
2022-08-16T09:29:23.722Z,23.60
2022-08-16T09:32:12.766Z,23.70
2022-08-16T09:35:16.868Z,23.80
2022-08-16T09:38:05.845Z,24.00
2022-08-16T09:40:58.724Z,24.10
2022-08-16T09:44:00.346Z,24.20
2022-08-16T09:46:50.594Z,24.30
2022-08-16T09:49:41.179Z,24.40
2022-08-16T09:52:30.319Z,24.50
2022-08-16T09:55:18.463Z,24.60
2022-08-16T09:58:06.681Z,24.70
2022-08-16T10:01:00.963Z,24.80
2022-08-16T10:04:01.203Z,24.90
2022-08-16T10:06:51.141Z,25.00
2022-08-16T10:09:45.180Z,25.10
2022-08-16T10:13:00.422Z,25.20
2022-08-16T10:15:55.539Z,25.40
2022-08-16T10:19:00.611Z,25.50
2022-08-16T10:21:56.215Z,25.60
2022-08-16T10:24:55.772Z,25.80
2022-08-16T10:27:56.680Z,26.00
2022-08-16T10:30:56.500Z,26.20
2022-08-16T10:33:48.193Z,26.30
2022-08-16T10:36:38.786Z,26.50
2022-08-16T10:39:40.423Z,26.60
2022-08-16T10:42:29.978Z,26.70
2022-08-16T10:45:18.840Z,26.90
2022-08-16T10:48:27.033Z,27.00
2022-08-16T10:51:17.697Z,27.20
2022-08-16T10:54:05.706Z,27.30
2022-08-16T10:57:14.743Z,27.40
2022-08-16T11:00:21.008Z,27.60
2022-08-16T11:06:26.633Z,27.90
2022-08-16T11:09:25.865Z,28.20
2022-08-16T11:12:16.920Z,28.20
2022-08-16T11:15:17.111Z,28.30
2022-08-16T11:18:49.025Z,28.50
2022-08-16T11:21:29.094Z,28.70
2022-08-16T11:24:41.945Z,28.90
2022-08-16T11:27:36.047Z,29.00
2022-08-16T11:30:28.267Z,29.20
2022-08-16T11:33:51.847Z,29.20
2022-08-16T11:36:33.751Z,29.40
2022-08-16T11:39:23.023Z,29.60
2022-08-16T11:42:28.172Z,29.80
2022-08-16T11:45:17.717Z,29.80
2022-08-16T11:48:08.061Z,29.70
2022-08-16T11:50:56.752Z,29.50
2022-08-16T11:53:44.971Z,29.40
2022-08-16T11:56:51.723Z,29.10
2022-08-16T11:59:42.364Z,28.90
2022-08-16T12:02:31.220Z,28.70
2022-08-16T12:05:20.734Z,28.60
2022-08-16T12:08:09.445Z,28.40
2022-08-16T12:10:59.215Z,28.20
2022-08-16T12:13:48.823Z,28.00
2022-08-16T12:16:38.441Z,27.90
2022-08-16T12:19:35.235Z,27.70
2022-08-16T12:22:24.688Z,27.60
2022-08-16T12:25:15.189Z,27.50
2022-08-16T12:28:03.905Z,27.40
2022-08-16T12:30:53.449Z,27.30
2022-08-16T12:33:44.903Z,27.30
2022-08-16T12:36:35.271Z,27.20
2022-08-16T12:39:23.867Z,27.00
2022-08-16T12:42:19.432Z,26.80
2022-08-16T12:45:13.997Z,26.70
2022-08-16T12:48:33.694Z,26.60
2022-08-16T12:51:32.883Z,26.60
2022-08-16T12:54:35.181Z,26.70
2022-08-16T12:57:25.747Z,26.70
2022-08-16T13:00:33.680Z,26.80
2022-08-16T13:03:23.389Z,26.90
2022-08-16T13:06:12.511Z,26.90
2022-08-16T13:09:16.841Z,27.00
2022-08-16T13:12:15.980Z,27.00
2022-08-16T13:15:04.304Z,27.10
2022-08-16T13:17:53.399Z,27.20
2022-08-16T13:20:44.335Z,27.20
2022-08-16T13:23:33.496Z,27.30
2022-08-16T13:26:26.630Z,27.40
2022-08-16T13:29:14.635Z,27.40
2022-08-16T13:32:02.795Z,27.50
2022-08-16T13:34:53.392Z,27.50
2022-08-16T13:37:42.646Z,27.50
2022-08-16T13:40:31.333Z,27.60
2022-08-16T13:43:21.533Z,27.60
2022-08-16T13:46:11.265Z,27.70
2022-08-16T13:49:00.004Z,27.80
2022-08-16T13:51:47.985Z,28.00
2022-08-16T13:54:37.615Z,28.50
2022-08-16T13:57:52.980Z,28.60
2022-08-16T14:00:34.156Z,28.40
2022-08-16T14:03:23.965Z,28.20
2022-08-16T14:06:13.271Z,28.20
2022-08-16T14:09:06.841Z,28.20
2022-08-16T14:11:57.411Z,28.10
2022-08-16T14:14:45.411Z,28.20
2022-08-16T14:18:14.827Z,28.20
2022-08-16T14:20:48.461Z,28.30
2022-08-16T14:23:36.929Z,28.30
2022-08-16T14:26:25.072Z,28.30
2022-08-16T14:29:14.388Z,28.40
2022-08-16T14:32:05.760Z,28.40
2022-08-16T14:34:53.979Z,28.40
2022-08-16T14:37:44.281Z,28.40
2022-08-16T14:40:32.448Z,28.50
2022-08-16T14:43:23.284Z,28.40
2022-08-16T14:46:12.439Z,28.50
2022-08-16T14:49:00.313Z,28.50
2022-08-16T14:51:48.763Z,28.50
2022-08-16T14:54:37.888Z,28.60
2022-08-16T14:57:27.342Z,28.60
2022-08-16T15:00:18.027Z,28.80
2022-08-16T15:03:09.826Z,28.90
2022-08-16T15:05:57.879Z,29.00
2022-08-16T15:08:46.030Z,29.00
2022-08-16T15:11:33.913Z,29.10
2022-08-16T15:14:32.880Z,29.40
2022-08-16T15:17:21.793Z,29.90
2022-08-16T15:20:15.138Z,30.20
2022-08-16T15:23:08.298Z,30.50
2022-08-16T15:26:03.084Z,30.50
2022-08-16T15:28:51.693Z,30.40
2022-08-16T15:31:41.450Z,30.30
2022-08-16T15:34:29.337Z,30.20
2022-08-16T15:37:18.874Z,30.00
2022-08-16T15:40:16.482Z,29.90
2022-08-16T15:43:19.338Z,29.70
2022-08-16T15:46:35.521Z,29.60
2022-08-16T15:49:37.884Z,29.50
2022-08-16T15:52:36.804Z,29.40
2022-08-16T15:55:34.624Z,29.60
2022-08-16T15:58:35.600Z,29.60
2022-08-16T16:01:27.682Z,29.70
2022-08-16T16:04:22.717Z,29.80
2022-08-16T16:07:11.028Z,29.90
2022-08-16T16:10:01.103Z,30.00
2022-08-16T16:12:52.896Z,30.40
2022-08-16T16:15:44.486Z,30.60
2022-08-16T16:18:34.258Z,30.60
2022-08-16T16:21:22.226Z,30.50
2022-08-16T16:24:23.591Z,30.50
2022-08-16T16:27:13.845Z,30.80
2022-08-16T16:30:33.317Z,31.00
2022-08-16T16:33:20.467Z,31.10
2022-08-16T16:36:13.507Z,31.30
2022-08-16T16:39:02.963Z,31.30
2022-08-16T16:41:50.759Z,31.40
2022-08-16T16:44:39.952Z,31.50
2022-08-16T16:47:41.671Z,31.60
2022-08-16T16:50:33.454Z,31.60
2022-08-16T16:53:26.047Z,31.70
2022-08-16T16:56:30.254Z,31.80
2022-08-16T16:59:22.596Z,31.80
2022-08-16T17:02:41.472Z,31.80
2022-08-16T17:05:21.179Z,31.70
2022-08-16T17:08:09.461Z,31.50
2022-08-16T17:10:58.477Z,31.50
2022-08-16T17:13:47.738Z,31.50
2022-08-16T17:16:35.752Z,31.40
2022-08-16T17:19:25.649Z,31.30
2022-08-16T17:22:22.246Z,31.30
2022-08-16T17:25:11.636Z,31.30
2022-08-16T17:27:59.556Z,31.30
2022-08-16T17:30:50.226Z,31.30
2022-08-16T17:33:54.421Z,31.30
2022-08-16T17:36:52.875Z,31.20
2022-08-16T17:39:54.824Z,30.90
2022-08-16T17:42:48.352Z,30.70
2022-08-16T17:45:36.355Z,30.50
2022-08-16T17:48:04.650Z,30.40
2022-08-16T17:50:54.601Z,30.30
2022-08-16T17:53:48.521Z,30.20
2022-08-16T17:56:38.353Z,30.00
2022-08-16T17:59:26.290Z,29.90
2022-08-16T18:02:42.582Z,29.70
2022-08-16T18:05:22.042Z,29.50
2022-08-16T18:08:10.300Z,29.40
2022-08-16T18:11:00.053Z,29.20
2022-08-16T18:13:49.234Z,29.10
2022-08-16T18:16:37.091Z,28.90
2022-08-16T18:19:24.944Z,28.70
2022-08-16T18:22:20.701Z,28.60
2022-08-16T18:25:09.450Z,28.50
2022-08-16T18:27:58.639Z,28.30
2022-08-16T18:30:51.405Z,28.20
2022-08-16T18:33:43.150Z,28.00
2022-08-16T18:36:33.267Z,27.90
2022-08-16T18:39:21.087Z,27.70
2022-08-16T18:42:09.651Z,27.60
2022-08-16T18:44:58.831Z,27.40
2022-08-16T18:47:46.677Z,27.30
2022-08-16T18:50:58.760Z,27.20
2022-08-16T18:53:43.385Z,27.10
2022-08-16T18:56:57.110Z,26.90
2022-08-16T18:59:39.813Z,26.90
2022-08-16T19:02:57.428Z,26.80
2022-08-16T19:05:42.086Z,26.70
2022-08-16T19:08:30.688Z,26.60
2022-08-16T19:11:23.414Z,26.60
2022-08-16T19:14:16.082Z,26.50
2022-08-16T19:17:05.321Z,26.40
2022-08-16T19:19:54.663Z,26.40
2022-08-16T19:23:04.693Z,26.30
2022-08-16T19:25:54.845Z,26.20
2022-08-16T19:28:51.553Z,26.10
2022-08-16T19:31:47.132Z,26.00
2022-08-16T19:34:34.974Z,26.00
2022-08-16T19:37:24.420Z,25.90
2022-08-16T19:40:37.208Z,25.80
2022-08-16T19:43:22.983Z,25.70
2022-08-16T19:46:10.781Z,25.50
2022-08-16T19:48:58.854Z,25.40
2022-08-16T19:51:46.792Z,25.30
2022-08-16T19:54:41.099Z,25.20
2022-08-16T19:57:29.509Z,25.10
2022-08-16T20:00:19.074Z,25.00
2022-08-16T20:03:13.460Z,25.00
2022-08-16T20:06:01.796Z,24.90
2022-08-16T20:08:49.840Z,24.80
2022-08-16T20:11:39.091Z,24.80
2022-08-16T20:14:26.956Z,24.80
2022-08-16T20:17:15.928Z,24.70
2022-08-16T20:20:04.330Z,24.70
2022-08-16T20:22:55.176Z,24.60
2022-08-16T20:25:49.878Z,24.50
2022-08-16T20:28:52.394Z,24.50
2022-08-16T20:31:42.419Z,24.40
2022-08-16T20:34:30.336Z,24.30
2022-08-16T20:37:18.895Z,24.20
2022-08-16T20:40:34.109Z,24.20
2022-08-16T20:43:17.511Z,24.10
2022-08-16T20:46:06.752Z,24.00
2022-08-16T20:48:55.099Z,24.00
2022-08-16T20:51:49.395Z,24.00
2022-08-16T20:54:40.319Z,23.90
2022-08-16T20:57:28.188Z,23.90
2022-08-16T21:00:16.770Z,23.80
2022-08-16T21:03:08.911Z,23.80
2022-08-16T21:05:58.491Z,23.80
2022-08-16T21:08:53.224Z,23.80
2022-08-16T21:11:41.623Z,23.70
2022-08-16T21:14:32.418Z,23.60
2022-08-16T21:17:20.460Z,23.60
2022-08-16T21:20:11.387Z,23.50
2022-08-16T21:23:01.880Z,23.40
2022-08-16T21:25:58.274Z,23.30
2022-08-16T21:28:47.785Z,23.20
2022-08-16T21:31:35.672Z,23.10
2022-08-16T21:34:23.544Z,23.00
2022-08-16T21:37:15.501Z,23.10
2022-08-16T21:40:04.825Z,23.10
2022-08-16T21:42:52.992Z,23.00
2022-08-16T21:45:43.101Z,23.00
2022-08-16T21:48:33.717Z,22.90
2022-08-16T21:51:23.223Z,22.70
2022-08-16T21:54:12.451Z,22.70
2022-08-16T21:57:00.285Z,22.60
2022-08-16T21:59:48.157Z,22.60
2022-08-16T22:02:38.958Z,22.50
2022-08-16T22:05:27.076Z,22.40
2022-08-16T22:08:17.278Z,22.30
2022-08-16T22:11:09.430Z,22.20
2022-08-16T22:13:59.439Z,22.20
2022-08-16T22:16:47.464Z,22.20
2022-08-16T22:19:36.205Z,22.10
2022-08-16T22:22:24.194Z,22.10
2022-08-16T22:25:23.174Z,22.10
2022-08-16T22:28:13.259Z,22.00
2022-08-16T22:31:02.036Z,22.00
2022-08-16T22:33:50.021Z,22.00
2022-08-16T22:36:38.873Z,22.00
2022-08-16T22:39:27.484Z,21.90
2022-08-16T22:42:15.714Z,22.00
2022-08-16T22:45:07.672Z,21.90
2022-08-16T22:47:56.025Z,21.80
2022-08-16T22:50:44.489Z,21.70
2022-08-16T22:53:32.395Z,21.70
2022-08-16T22:56:20.599Z,21.60
2022-08-16T22:59:08.513Z,21.60
2022-08-16T23:01:57.875Z,21.60
2022-08-16T23:04:45.701Z,21.50
2022-08-16T23:07:33.540Z,21.50
2022-08-16T23:10:22.801Z,21.50
2022-08-16T23:13:10.919Z,21.50
2022-08-16T23:16:02.087Z,21.50
2022-08-16T23:18:53.293Z,21.50
2022-08-16T23:21:44.192Z,21.40
2022-08-16T23:24:36.994Z,21.40
2022-08-16T23:27:28.784Z,21.30
2022-08-16T23:30:17.925Z,21.20
2022-08-16T23:33:09.554Z,21.20
2022-08-16T23:36:00.691Z,21.10
2022-08-16T23:38:48.913Z,21.00
2022-08-16T23:41:36.839Z,21.00
2022-08-16T23:44:58.533Z,20.90
2022-08-16T23:47:32.659Z,20.90
2022-08-16T23:50:20.953Z,20.80
2022-08-16T23:53:12.008Z,20.70
2022-08-16T23:56:02.175Z,20.70
2022-08-16T23:59:02.435Z,20.60
